Rembrandt, Iowa
Current Conditions -  °F | °C
As of 8:15 AM on Thursday 30 Oct 2014 (Local Time) from KSLB Reporting Station
Broken Clouds Broken Clouds  
Wind Chill: 32°   Ceiling: 9500
Heat Index: 37°   Visibility: 10mi
Dew Point: 34°   Wind: 7mph
Humidity: 87%   Direction: 230°SW
Pressure: 30"   Gusts: NA
Location:  42.83°N, 95.17°W
Report Text: KSLB 301315Z AUTO 23006KT 10SM FEW075 BKN095 03/01 A3000 RMK AO2
Loading
Personal Weather Stations






























Interactive Weather Map
Tropical Storm Tracking
New forecast layout! Learn more

10-Day Weather Forecast

Advertisements
Track Severe Weather on mobile